sensor_id;sensor_type;location;lat;lon;timestamp;temperature;humidity
15203;DHT22;7702;51.046;5.184;2023-04-15T00:02:18;6.60;99.90
15203;DHT22;7702;51.046;5.184;2023-04-15T00:04:45;6.60;99.90
15203;DHT22;7702;51.046;5.184;2023-04-15T00:07:11;6.60;99.90
15203;DHT22;7702;51.046;5.184;2023-04-15T00:09:37;6.70;99.90
15203;DHT22;7702;51.046;5.184;2023-04-15T00:12:04;6.70;99.90
15203;DHT22;7702;51.046;5.184;2023-04-15T00:14:30;6.70;99.90
15203;DHT22;7702;51.046;5.184;2023-04-15T00:16:55;6.80;99.90
15203;DHT22;7702;51.046;5.184;2023-04-15T00:19:22;6.80;99.90
15203;DHT22;7702;51.046;5.184;2023-04-15T00:21:48;6.90;99.90
15203;DHT22;7702;51.046;5.184;2023-04-15T00:24:14;6.90;99.90
15203;DHT22;7702;51.046;5.184;2023-04-15T00:26:40;6.90;99.90
15203;DHT22;7702;51.046;5.184;2023-04-15T00:29:06;7.00;99.90
15203;DHT22;7702;51.046;5.184;2023-04-15T00:31:32;7.00;99.90
15203;DHT22;7702;51.046;5.184;2023-04-15T00:33:58;7.10;99.90
15203;DHT22;7702;51.046;5.184;2023-04-15T00:36:24;7.10;99.90
15203;DHT22;7702;51.046;5.184;2023-04-15T00:38:50;7.20;99.90
15203;DHT22;7702;51.046;5.184;2023-04-15T00:41:17;7.20;99.90
15203;DHT22;7702;51.046;5.184;2023-04-15T00:43:43;7.20;99.90
15203;DHT22;7702;51.046;5.184;2023-04-15T00:46:12;7.20;99.90
15203;DHT22;7702;51.046;5.184;2023-04-15T00:48:38;7.20;99.90
15203;DHT22;7702;51.046;5.184;2023-04-15T00:51:05;7.30;99.90
15203;DHT22;7702;51.046;5.184;2023-04-15T00:53:32;7.30;99.90
15203;DHT22;7702;51.046;5.184;2023-04-15T00:55:57;7.40;99.90
15203;DHT22;7702;51.046;5.184;2023-04-15T00:58:23;7.50;99.90
15203;DHT22;7702;51.046;5.184;2023-04-15T01:00:50;7.50;99.90
15203;DHT22;7702;51.046;5.184;2023-04-15T01:03:19;7.50;99.90
15203;DHT22;7702;51.046;5.184;2023-04-15T01:05:45;7.50;99.90
15203;DHT22;7702;51.046;5.184;2023-04-15T01:08:11;7.50;99.90
15203;DHT22;7702;51.046;5.184;2023-04-15T01:10:38;7.50;99.90
15203;DHT22;7702;51.046;5.184;2023-04-15T01:13:04;7.60;99.90
15203;DHT22;7702;51.046;5.184;2023-04-15T01:15:30;7.60;99.90
15203;DHT22;7702;51.046;5.184;2023-04-15T01:17:59;7.60;99.90
15203;DHT22;7702;51.046;5.184;2023-04-15T01:20:27;7.70;99.90
15203;DHT22;7702;51.046;5.184;2023-04-15T01:22:54;7.70;99.90
15203;DHT22;7702;51.046;5.184;2023-04-15T01:25:33;7.70;99.90
15203;DHT22;7702;51.046;5.184;2023-04-15T01:27:59;7.60;99.90
15203;DHT22;7702;51.046;5.184;2023-04-15T01:30:25;7.60;99.90
15203;DHT22;7702;51.046;5.184;2023-04-15T01:32:52;7.60;99.90
15203;DHT22;7702;51.046;5.184;2023-04-15T01:35:18;7.70;99.90
15203;DHT22;7702;51.046;5.184;2023-04-15T01:37:44;7.70;99.90
15203;DHT22;7702;51.046;5.184;2023-04-15T01:40:10;7.70;99.90
15203;DHT22;7702;51.046;5.184;2023-04-15T01:42:36;7.70;99.90
15203;DHT22;7702;51.046;5.184;2023-04-15T01:45:03;7.70;99.90
15203;DHT22;7702;51.046;5.184;2023-04-15T01:47:28;7.80;99.90
15203;DHT22;7702;51.046;5.184;2023-04-15T01:49:55;7.80;99.90
15203;DHT22;7702;51.046;5.184;2023-04-15T01:52:21;7.80;99.90
15203;DHT22;7702;51.046;5.184;2023-04-15T01:54:46;7.90;99.90
15203;DHT22;7702;51.046;5.184;2023-04-15T01:57:12;7.90;99.90
15203;DHT22;7702;51.046;5.184;2023-04-15T01:59:38;7.90;99.90
15203;DHT22;7702;51.046;5.184;2023-04-15T02:02:04;7.90;99.90
15203;DHT22;7702;51.046;5.184;2023-04-15T02:04:29;8.00;99.90
15203;DHT22;7702;51.046;5.184;2023-04-15T02:06:56;8.00;99.90
15203;DHT22;7702;51.046;5.184;2023-04-15T02:09:21;8.00;99.90
15203;DHT22;7702;51.046;5.184;2023-04-15T02:11:48;8.00;99.90
15203;DHT22;7702;51.046;5.184;2023-04-15T02:14:14;8.00;99.90
15203;DHT22;7702;51.046;5.184;2023-04-15T02:16:39;8.00;99.90
15203;DHT22;7702;51.046;5.184;2023-04-15T02:19:05;8.00;99.90
15203;DHT22;7702;51.046;5.184;2023-04-15T02:21:32;8.00;99.90
15203;DHT22;7702;51.046;5.184;2023-04-15T02:23:57;8.10;99.90
15203;DHT22;7702;51.046;5.184;2023-04-15T02:26:23;8.10;99.90
15203;DHT22;7702;51.046;5.184;2023-04-15T02:28:50;8.00;99.90
15203;DHT22;7702;51.046;5.184;2023-04-15T02:31:16;8.00;99.90
15203;DHT22;7702;51.046;5.184;2023-04-15T02:33:42;8.00;99.90
15203;DHT22;7702;51.046;5.184;2023-04-15T02:36:08;8.00;99.90
15203;DHT22;7702;51.046;5.184;2023-04-15T02:38:34;8.00;99.90
15203;DHT22;7702;51.046;5.184;2023-04-15T02:41:00;8.00;99.90
15203;DHT22;7702;51.046;5.184;2023-04-15T02:43:26;8.00;99.90
15203;DHT22;7702;51.046;5.184;2023-04-15T02:45:51;7.90;99.90
15203;DHT22;7702;51.046;5.184;2023-04-15T02:48:17;8.00;99.90
15203;DHT22;7702;51.046;5.184;2023-04-15T02:50:45;8.00;99.90
15203;DHT22;7702;51.046;5.184;2023-04-15T02:53:11;8.00;99.90
15203;DHT22;7702;51.046;5.184;2023-04-15T02:55:39;8.00;99.90
15203;DHT22;7702;51.046;5.184;2023-04-15T02:58:04;8.00;99.90
15203;DHT22;7702;51.046;5.184;2023-04-15T03:00:30;8.10;99.90
15203;DHT22;7702;51.046;5.184;2023-04-15T03:03:02;8.10;99.90
15203;DHT22;7702;51.046;5.184;2023-04-15T03:05:28;8.10;99.90
15203;DHT22;7702;51.046;5.184;2023-04-15T03:07:54;8.00;99.90
15203;DHT22;7702;51.046;5.184;2023-04-15T03:10:20;8.00;99.90
15203;DHT22;7702;51.046;5.184;2023-04-15T03:12:46;8.00;99.90
15203;DHT22;7702;51.046;5.184;2023-04-15T03:15:12;8.00;99.90
15203;DHT22;7702;51.046;5.184;2023-04-15T03:17:37;8.00;99.90
15203;DHT22;7702;51.046;5.184;2023-04-15T03:20:04;7.90;99.90
15203;DHT22;7702;51.046;5.184;2023-04-15T03:22:31;7.90;99.90
15203;DHT22;7702;51.046;5.184;2023-04-15T03:24:57;7.90;99.90
15203;DHT22;7702;51.046;5.184;2023-04-15T03:27:23;7.90;99.90
15203;DHT22;7702;51.046;5.184;2023-04-15T03:29:49;7.90;99.90
15203;DHT22;7702;51.046;5.184;2023-04-15T03:32:16;7.80;99.90
15203;DHT22;7702;51.046;5.184;2023-04-15T03:34:42;7.90;99.90
15203;DHT22;7702;51.046;5.184;2023-04-15T03:37:07;8.00;99.90
15203;DHT22;7702;51.046;5.184;2023-04-15T03:39:33;8.00;99.90
15203;DHT22;7702;51.046;5.184;2023-04-15T03:42:00;8.00;99.90
15203;DHT22;7702;51.046;5.184;2023-04-15T03:44:26;8.00;99.90
15203;DHT22;7702;51.046;5.184;2023-04-15T03:46:52;7.90;99.90
15203;DHT22;7702;51.046;5.184;2023-04-15T03:49:19;7.90;99.90
15203;DHT22;7702;51.046;5.184;2023-04-15T03:51:47;7.90;99.90
15203;DHT22;7702;51.046;5.184;2023-04-15T03:54:12;7.90;99.90
15203;DHT22;7702;51.046;5.184;2023-04-15T03:56:39;7.80;99.90
15203;DHT22;7702;51.046;5.184;2023-04-15T03:59:05;7.90;99.90
15203;DHT22;7702;51.046;5.184;2023-04-15T04:01:31;7.90;99.90
15203;DHT22;7702;51.046;5.184;2023-04-15T04:03:57;7.90;99.90
15203;DHT22;7702;51.046;5.184;2023-04-15T04:06:23;7.90;99.90
15203;DHT22;7702;51.046;5.184;2023-04-15T04:08:48;7.80;99.90
15203;DHT22;7702;51.046;5.184;2023-04-15T04:11:15;7.80;99.90
15203;DHT22;7702;51.046;5.184;2023-04-15T04:13:40;7.80;99.90
15203;DHT22;7702;51.046;5.184;2023-04-15T04:16:06;7.80;99.90
15203;DHT22;7702;51.046;5.184;2023-04-15T04:18:32;7.80;99.90
15203;DHT22;7702;51.046;5.184;2023-04-15T04:20:58;7.90;99.90
15203;DHT22;7702;51.046;5.184;2023-04-15T04:23:25;7.80;99.90
15203;DHT22;7702;51.046;5.184;2023-04-15T04:25:50;7.80;99.90
15203;DHT22;7702;51.046;5.184;2023-04-15T04:28:17;7.80;99.90
15203;DHT22;7702;51.046;5.184;2023-04-15T04:30:43;7.80;99.90
15203;DHT22;7702;51.046;5.184;2023-04-15T04:33:09;7.80;99.90
15203;DHT22;7702;51.046;5.184;2023-04-15T04:35:35;7.80;99.90
15203;DHT22;7702;51.046;5.184;2023-04-15T04:38:02;7.80;99.90
15203;DHT22;7702;51.046;5.184;2023-04-15T04:40:28;7.80;99.90
15203;DHT22;7702;51.046;5.184;2023-04-15T04:42:54;7.80;99.90
15203;DHT22;7702;51.046;5.184;2023-04-15T04:45:20;7.70;99.90
15203;DHT22;7702;51.046;5.184;2023-04-15T04:47:45;7.80;99.90
15203;DHT22;7702;51.046;5.184;2023-04-15T04:50:12;7.70;99.90
15203;DHT22;7702;51.046;5.184;2023-04-15T04:52:38;7.80;99.90
15203;DHT22;7702;51.046;5.184;2023-04-15T04:55:04;7.70;99.90
15203;DHT22;7702;51.046;5.184;2023-04-15T04:57:29;7.80;99.90
15203;DHT22;7702;51.046;5.184;2023-04-15T04:59:55;7.80;99.90
15203;DHT22;7702;51.046;5.184;2023-04-15T05:02:21;7.80;99.90
15203;DHT22;7702;51.046;5.184;2023-04-15T05:04:47;7.80;99.90
15203;DHT22;7702;51.046;5.184;2023-04-15T05:07:14;7.80;99.90
15203;DHT22;7702;51.046;5.184;2023-04-15T05:09:41;7.80;99.90
15203;DHT22;7702;51.046;5.184;2023-04-15T05:12:07;7.80;99.90
15203;DHT22;7702;51.046;5.184;2023-04-15T05:14:33;7.90;99.90
15203;DHT22;7702;51.046;5.184;2023-04-15T05:16:59;7.90;99.90
15203;DHT22;7702;51.046;5.184;2023-04-15T05:19:25;7.90;99.90
15203;DHT22;7702;51.046;5.184;2023-04-15T05:21:50;8.00;99.90
15203;DHT22;7702;51.046;5.184;2023-04-15T05:24:16;8.00;99.90
15203;DHT22;7702;51.046;5.184;2023-04-15T05:26:42;8.10;99.90
15203;DHT22;7702;51.046;5.184;2023-04-15T05:29:08;8.10;99.90
15203;DHT22;7702;51.046;5.184;2023-04-15T05:31:35;8.20;99.90
15203;DHT22;7702;51.046;5.184;2023-04-15T05:34:01;8.20;99.90
15203;DHT22;7702;51.046;5.184;2023-04-15T05:36:27;8.40;99.90
15203;DHT22;7702;51.046;5.184;2023-04-15T05:38:53;8.40;99.90
15203;DHT22;7702;51.046;5.184;2023-04-15T05:41:19;8.50;99.90
15203;DHT22;7702;51.046;5.184;2023-04-15T05:43:45;8.50;99.90
15203;DHT22;7702;51.046;5.184;2023-04-15T05:46:10;8.50;99.90
15203;DHT22;7702;51.046;5.184;2023-04-15T05:48:36;8.60;99.90
15203;DHT22;7702;51.046;5.184;2023-04-15T05:51:02;8.60;99.90
15203;DHT22;7702;51.046;5.184;2023-04-15T05:53:28;8.70;99.90
15203;DHT22;7702;51.046;5.184;2023-04-15T05:55:53;8.80;99.90
15203;DHT22;7702;51.046;5.184;2023-04-15T05:58:19;8.90;99.90
15203;DHT22;7702;51.046;5.184;2023-04-15T06:00:45;8.80;99.90
15203;DHT22;7702;51.046;5.184;2023-04-15T06:03:10;8.90;99.90
15203;DHT22;7702;51.046;5.184;2023-04-15T06:05:36;8.90;99.90
15203;DHT22;7702;51.046;5.184;2023-04-15T06:08:02;9.00;99.90
15203;DHT22;7702;51.046;5.184;2023-04-15T06:10:29;9.10;99.90
15203;DHT22;7702;51.046;5.184;2023-04-15T06:12:55;9.10;99.90
15203;DHT22;7702;51.046;5.184;2023-04-15T06:15:21;9.10;99.90
15203;DHT22;7702;51.046;5.184;2023-04-15T06:17:46;9.10;99.90
15203;DHT22;7702;51.046;5.184;2023-04-15T06:20:12;9.10;99.90
15203;DHT22;7702;51.046;5.184;2023-04-15T06:22:38;9.20;99.90
15203;DHT22;7702;51.046;5.184;2023-04-15T06:25:05;9.30;99.90
15203;DHT22;7702;51.046;5.184;2023-04-15T06:27:32;9.30;99.90
15203;DHT22;7702;51.046;5.184;2023-04-15T06:29:58;9.30;99.90
15203;DHT22;7702;51.046;5.184;2023-04-15T06:32:24;9.50;99.90
15203;DHT22;7702;51.046;5.184;2023-04-15T06:34:50;9.50;99.90
15203;DHT22;7702;51.046;5.184;2023-04-15T06:37:16;9.60;99.90
15203;DHT22;7702;51.046;5.184;2023-04-15T06:39:42;9.70;99.90
15203;DHT22;7702;51.046;5.184;2023-04-15T06:42:09;9.80;99.90
15203;DHT22;7702;51.046;5.184;2023-04-15T06:44:35;10.00;99.90
15203;DHT22;7702;51.046;5.184;2023-04-15T06:47:02;10.20;99.90
15203;DHT22;7702;51.046;5.184;2023-04-15T06:49:27;10.30;99.90
15203;DHT22;7702;51.046;5.184;2023-04-15T06:51:54;10.40;99.90
15203;DHT22;7702;51.046;5.184;2023-04-15T06:54:20;10.60;99.90
15203;DHT22;7702;51.046;5.184;2023-04-15T06:56:45;10.80;99.90
15203;DHT22;7702;51.046;5.184;2023-04-15T06:59:12;11.10;99.90
15203;DHT22;7702;51.046;5.184;2023-04-15T07:01:39;11.30;99.90
15203;DHT22;7702;51.046;5.184;2023-04-15T07:04:05;11.50;99.90
15203;DHT22;7702;51.046;5.184;2023-04-15T07:06:31;11.60;99.90
15203;DHT22;7702;51.046;5.184;2023-04-15T07:08:58;11.70;99.90
15203;DHT22;7702;51.046;5.184;2023-04-15T07:11:25;11.90;99.90
15203;DHT22;7702;51.046;5.184;2023-04-15T07:13:51;11.90;99.90
15203;DHT22;7702;51.046;5.184;2023-04-15T07:16:17;12.10;99.90
15203;DHT22;7702;51.046;5.184;2023-04-15T07:18:43;12.20;99.90
15203;DHT22;7702;51.046;5.184;2023-04-15T07:21:09;12.20;99.90
15203;DHT22;7702;51.046;5.184;2023-04-15T07:23:35;12.40;99.90
15203;DHT22;7702;51.046;5.184;2023-04-15T07:26:00;12.50;99.90
15203;DHT22;7702;51.046;5.184;2023-04-15T07:28:26;12.70;99.90
15203;DHT22;7702;51.046;5.184;2023-04-15T07:30:52;12.70;99.90
15203;DHT22;7702;51.046;5.184;2023-04-15T07:33:18;12.80;99.90
15203;DHT22;7702;51.046;5.184;2023-04-15T07:35:43;13.00;99.90
15203;DHT22;7702;51.046;5.184;2023-04-15T07:38:09;13.10;99.90
15203;DHT22;7702;51.046;5.184;2023-04-15T07:40:37;13.20;99.90
15203;DHT22;7702;51.046;5.184;2023-04-15T07:43:04;13.40;99.90
15203;DHT22;7702;51.046;5.184;2023-04-15T07:45:30;13.40;99.90
15203;DHT22;7702;51.046;5.184;2023-04-15T07:47:56;13.50;99.90
15203;DHT22;7702;51.046;5.184;2023-04-15T07:50:23;13.60;99.90
15203;DHT22;7702;51.046;5.184;2023-04-15T07:52:49;13.60;99.90
15203;DHT22;7702;51.046;5.184;2023-04-15T07:55:16;13.50;99.90
15203;DHT22;7702;51.046;5.184;2023-04-15T07:57:43;13.50;99.90
15203;DHT22;7702;51.046;5.184;2023-04-15T08:00:09;13.60;99.90
15203;DHT22;7702;51.046;5.184;2023-04-15T08:02:35;13.80;99.90
15203;DHT22;7702;51.046;5.184;2023-04-15T08:05:01;14.00;99.90
15203;DHT22;7702;51.046;5.184;2023-04-15T08:07:28;14.10;99.90
15203;DHT22;7702;51.046;5.184;2023-04-15T08:09:54;14.00;99.90
15203;DHT22;7702;51.046;5.184;2023-04-15T08:12:21;14.00;99.90
15203;DHT22;7702;51.046;5.184;2023-04-15T08:14:47;14.10;99.90
15203;DHT22;7702;51.046;5.184;2023-04-15T08:17:12;14.20;99.90
15203;DHT22;7702;51.046;5.184;2023-04-15T08:19:39;14.50;99.90
15203;DHT22;7702;51.046;5.184;2023-04-15T08:22:05;14.60;99.90
15203;DHT22;7702;51.046;5.184;2023-04-15T08:24:31;14.60;99.90
15203;DHT22;7702;51.046;5.184;2023-04-15T08:26:56;14.80;99.90
15203;DHT22;7702;51.046;5.184;2023-04-15T08:29:23;14.90;99.90
15203;DHT22;7702;51.046;5.184;2023-04-15T08:31:49;15.20;99.90
15203;DHT22;7702;51.046;5.184;2023-04-15T08:34:14;15.30;99.90
15203;DHT22;7702;51.046;5.184;2023-04-15T08:36:41;15.30;99.90
15203;DHT22;7702;51.046;5.184;2023-04-15T08:39:06;15.10;99.90
15203;DHT22;7702;51.046;5.184;2023-04-15T08:41:44;14.90;99.90
15203;DHT22;7702;51.046;5.184;2023-04-15T08:44:13;14.90;99.90
15203;DHT22;7702;51.046;5.184;2023-04-15T08:46:40;14.80;99.90
15203;DHT22;7702;51.046;5.184;2023-04-15T08:49:09;14.60;99.90
15203;DHT22;7702;51.046;5.184;2023-04-15T08:51:36;14.60;99.90
15203;DHT22;7702;51.046;5.184;2023-04-15T08:54:03;14.80;99.90
15203;DHT22;7702;51.046;5.184;2023-04-15T08:56:30;14.80;99.90
15203;DHT22;7702;51.046;5.184;2023-04-15T08:58:57;15.10;99.90
15203;DHT22;7702;51.046;5.184;2023-04-15T09:01:31;15.20;99.90
15203;DHT22;7702;51.046;5.184;2023-04-15T09:03:58;15.30;99.90
15203;DHT22;7702;51.046;5.184;2023-04-15T09:06:24;15.50;99.90
15203;DHT22;7702;51.046;5.184;2023-04-15T09:08:51;15.70;99.90
15203;DHT22;7702;51.046;5.184;2023-04-15T09:11:17;15.80;99.90
15203;DHT22;7702;51.046;5.184;2023-04-15T09:13:44;15.80;99.90
15203;DHT22;7702;51.046;5.184;2023-04-15T09:16:09;15.70;99.90
15203;DHT22;7702;51.046;5.184;2023-04-15T09:18:37;15.70;99.90
15203;DHT22;7702;51.046;5.184;2023-04-15T09:21:10;15.80;99.90
15203;DHT22;7702;51.046;5.184;2023-04-15T09:23:38;15.80;99.90
15203;DHT22;7702;51.046;5.184;2023-04-15T09:26:04;15.80;99.90
15203;DHT22;7702;51.046;5.184;2023-04-15T09:28:31;16.00;99.90
15203;DHT22;7702;51.046;5.184;2023-04-15T09:30:58;16.20;99.90
15203;DHT22;7702;51.046;5.184;2023-04-15T09:33:26;16.20;99.90
15203;DHT22;7702;51.046;5.184;2023-04-15T09:36:02;16.30;99.90
15203;DHT22;7702;51.046;5.184;2023-04-15T09:38:29;16.30;99.90
15203;DHT22;7702;51.046;5.184;2023-04-15T09:40:56;16.50;99.90
15203;DHT22;7702;51.046;5.184;2023-04-15T09:43:22;16.40;99.90
15203;DHT22;7702;51.046;5.184;2023-04-15T09:46:01;16.20;99.90
15203;DHT22;7702;51.046;5.184;2023-04-15T09:48:27;16.60;99.90
15203;DHT22;7702;51.046;5.184;2023-04-15T09:50:56;16.90;99.90
15203;DHT22;7702;51.046;5.184;2023-04-15T09:53:23;16.80;99.90
15203;DHT22;7702;51.046;5.184;2023-04-15T09:55:53;17.00;99.90
15203;DHT22;7702;51.046;5.184;2023-04-15T09:58:25;17.40;99.90
15203;DHT22;7702;51.046;5.184;2023-04-15T10:00:52;17.40;99.90
15203;DHT22;7702;51.046;5.184;2023-04-15T10:03:20;17.70;99.90
15203;DHT22;7702;51.046;5.184;2023-04-15T10:05:48;17.90;99.90
15203;DHT22;7702;51.046;5.184;2023-04-15T10:08:19;18.00;99.90
15203;DHT22;7702;51.046;5.184;2023-04-15T10:10:47;17.50;99.90
15203;DHT22;7702;51.046;5.184;2023-04-15T10:13:15;17.70;99.90
15203;DHT22;7702;51.046;5.184;2023-04-15T10:15:46;17.50;99.90
15203;DHT22;7702;51.046;5.184;2023-04-15T10:18:15;16.80;99.90
15203;DHT22;7702;51.046;5.184;2023-04-15T10:20:43;16.70;99.90
15203;DHT22;7702;51.046;5.184;2023-04-15T10:23:10;17.20;99.90
15203;DHT22;7702;51.046;5.184;2023-04-15T10:25:36;17.90;99.90
15203;DHT22;7702;51.046;5.184;2023-04-15T10:28:05;18.20;95.90
15203;DHT22;7702;51.046;5.184;2023-04-15T10:30:32;18.20;99.10
15203;DHT22;7702;51.046;5.184;2023-04-15T10:33:02;18.30;93.00
15203;DHT22;7702;51.046;5.184;2023-04-15T10:35:30;18.30;93.80
15203;DHT22;7702;51.046;5.184;2023-04-15T10:37:56;18.10;92.30
15203;DHT22;7702;51.046;5.184;2023-04-15T10:40:29;18.20;97.00
15203;DHT22;7702;51.046;5.184;2023-04-15T10:43:00;18.50;90.10
15203;DHT22;7702;51.046;5.184;2023-04-15T10:45:30;18.30;91.60
15203;DHT22;7702;51.046;5.184;2023-04-15T10:47:57;18.50;89.20
15203;DHT22;7702;51.046;5.184;2023-04-15T10:50:27;18.60;90.70
15203;DHT22;7702;51.046;5.184;2023-04-15T10:52:55;18.20;88.70
15203;DHT22;7702;51.046;5.184;2023-04-15T10:55:23;17.50;91.70
15203;DHT22;7702;51.046;5.184;2023-04-15T10:57:53;17.50;90.60
15203;DHT22;7702;51.046;5.184;2023-04-15T11:00:24;17.10;90.30
15203;DHT22;7702;51.046;5.184;2023-04-15T11:05:47;17.80;97.30
15203;DHT22;7702;51.046;5.184;2023-04-15T11:08:12;17.50;90.90
15203;DHT22;7702;51.046;5.184;2023-04-15T11:15:41;16.70;99.90
15203;DHT22;7702;51.046;5.184;2023-04-15T11:18:22;16.50;99.90
15203;DHT22;7702;51.046;5.184;2023-04-15T11:20:50;16.40;99.90
15203;DHT22;7702;51.046;5.184;2023-04-15T11:23:29;16.70;99.90
15203;DHT22;7702;51.046;5.184;2023-04-15T11:25:55;16.60;99.90
15203;DHT22;7702;51.046;5.184;2023-04-15T11:28:28;16.70;99.90
15203;DHT22;7702;51.046;5.184;2023-04-15T11:30:55;16.70;99.90
15203;DHT22;7702;51.046;5.184;2023-04-15T11:33:22;16.90;99.90
15203;DHT22;7702;51.046;5.184;2023-04-15T11:35:49;17.00;99.90
15203;DHT22;7702;51.046;5.184;2023-04-15T11:38:15;17.40;99.90
15203;DHT22;7702;51.046;5.184;2023-04-15T11:40:43;17.50;99.90
15203;DHT22;7702;51.046;5.184;2023-04-15T11:43:10;17.30;96.10
15203;DHT22;7702;51.046;5.184;2023-04-15T11:45:37;17.30;97.80
15203;DHT22;7702;51.046;5.184;2023-04-15T11:48:13;17.40;97.40
15203;DHT22;7702;51.046;5.184;2023-04-15T11:50:39;18.10;95.10
15203;DHT22;7702;51.046;5.184;2023-04-15T11:53:09;18.30;94.00
15203;DHT22;7702;51.046;5.184;2023-04-15T11:55:47;18.10;94.20
15203;DHT22;7702;51.046;5.184;2023-04-15T11:58:18;18.30;96.90
15203;DHT22;7702;51.046;5.184;2023-04-15T12:00:58;18.50;94.50
15203;DHT22;7702;51.046;5.184;2023-04-15T12:03:29;18.70;99.20
15203;DHT22;7702;51.046;5.184;2023-04-15T12:06:08;18.60;93.00
15203;DHT22;7702;51.046;5.184;2023-04-15T12:13:54;17.40;94.40
15203;DHT22;7702;51.046;5.184;2023-04-15T12:16:21;17.10;97.00
15203;DHT22;7702;51.046;5.184;2023-04-15T12:18:51;17.60;92.00
15203;DHT22;7702;51.046;5.184;2023-04-15T12:21:19;17.90;82.00
15203;DHT22;7702;51.046;5.184;2023-04-15T12:23:50;17.90;85.40
15203;DHT22;7702;51.046;5.184;2023-04-15T12:26:16;18.00;85.90
15203;DHT22;7702;51.046;5.184;2023-04-15T12:28:43;17.90;89.10
15203;DHT22;7702;51.046;5.184;2023-04-15T12:31:10;18.00;92.10
15203;DHT22;7702;51.046;5.184;2023-04-15T12:33:36;18.40;91.70
15203;DHT22;7702;51.046;5.184;2023-04-15T12:36:02;18.50;90.40
15203;DHT22;7702;51.046;5.184;2023-04-15T12:38:29;18.90;87.50
15203;DHT22;7702;51.046;5.184;2023-04-15T12:40:57;18.60;82.80
15203;DHT22;7702;51.046;5.184;2023-04-15T12:43:22;18.60;75.90
15203;DHT22;7702;51.046;5.184;2023-04-15T12:45:48;18.20;76.60
15203;DHT22;7702;51.046;5.184;2023-04-15T12:48:14;18.10;77.60
15203;DHT22;7702;51.046;5.184;2023-04-15T12:50:40;18.20;79.70
15203;DHT22;7702;51.046;5.184;2023-04-15T12:53:06;18.20;86.20
15203;DHT22;7702;51.046;5.184;2023-04-15T12:55:32;18.60;90.70
15203;DHT22;7702;51.046;5.184;2023-04-15T12:57:57;18.50;82.80
15203;DHT22;7702;51.046;5.184;2023-04-15T13:00:23;18.60;77.00
15203;DHT22;7702;51.046;5.184;2023-04-15T13:02:48;18.90;78.00
15203;DHT22;7702;51.046;5.184;2023-04-15T13:05:14;19.00;76.30
15203;DHT22;7702;51.046;5.184;2023-04-15T13:07:41;18.40;76.80
15203;DHT22;7702;51.046;5.184;2023-04-15T13:10:07;18.90;78.30
15203;DHT22;7702;51.046;5.184;2023-04-15T13:12:33;19.10;79.40
15203;DHT22;7702;51.046;5.184;2023-04-15T13:15:02;19.50;73.60
15203;DHT22;7702;51.046;5.184;2023-04-15T13:17:29;19.80;74.90
15203;DHT22;7702;51.046;5.184;2023-04-15T13:19:55;19.90;78.30
15203;DHT22;7702;51.046;5.184;2023-04-15T13:22:20;19.30;77.50
15203;DHT22;7702;51.046;5.184;2023-04-15T13:24:46;18.60;83.90
15203;DHT22;7702;51.046;5.184;2023-04-15T13:27:12;18.70;86.60
15203;DHT22;7702;51.046;5.184;2023-04-15T13:29:37;18.70;86.20
15203;DHT22;7702;51.046;5.184;2023-04-15T13:32:05;18.20;86.50
15203;DHT22;7702;51.046;5.184;2023-04-15T13:34:31;18.10;87.20
15203;DHT22;7702;51.046;5.184;2023-04-15T13:36:57;17.80;91.10
15203;DHT22;7702;51.046;5.184;2023-04-15T13:39:22;17.70;90.50
15203;DHT22;7702;51.046;5.184;2023-04-15T13:41:48;18.50;92.30
15203;DHT22;7702;51.046;5.184;2023-04-15T13:44:14;18.90;91.60
15203;DHT22;7702;51.046;5.184;2023-04-15T13:46:40;18.30;84.10
15203;DHT22;7702;51.046;5.184;2023-04-15T13:49:09;18.60;89.10
15203;DHT22;7702;51.046;5.184;2023-04-15T13:51:35;19.00;82.30
15203;DHT22;7702;51.046;5.184;2023-04-15T13:54:01;18.60;83.60
15203;DHT22;7702;51.046;5.184;2023-04-15T13:56:27;18.90;88.50
15203;DHT22;7702;51.046;5.184;2023-04-15T13:58:53;19.10;85.80
15203;DHT22;7702;51.046;5.184;2023-04-15T14:01:23;19.20;85.70
15203;DHT22;7702;51.046;5.184;2023-04-15T14:03:49;18.80;90.90
15203;DHT22;7702;51.046;5.184;2023-04-15T14:06:15;18.10;93.30
15203;DHT22;7702;51.046;5.184;2023-04-15T14:08:41;17.60;98.40
15203;DHT22;7702;51.046;5.184;2023-04-15T14:11:07;17.60;98.40
15203;DHT22;7702;51.046;5.184;2023-04-15T14:13:33;17.40;96.50
15203;DHT22;7702;51.046;5.184;2023-04-15T14:15:59;17.50;96.80
15203;DHT22;7702;51.046;5.184;2023-04-15T14:18:25;17.60;98.50
15203;DHT22;7702;51.046;5.184;2023-04-15T14:20:51;18.50;95.00
15203;DHT22;7702;51.046;5.184;2023-04-15T14:23:17;18.50;93.00
15203;DHT22;7702;51.046;5.184;2023-04-15T14:25:42;17.60;94.60
15203;DHT22;7702;51.046;5.184;2023-04-15T14:28:09;17.50;95.70
15203;DHT22;7702;51.046;5.184;2023-04-15T14:30:35;17.80;99.90
15203;DHT22;7702;51.046;5.184;2023-04-15T14:33:00;18.70;94.60
15203;DHT22;7702;51.046;5.184;2023-04-15T14:35:26;19.20;95.30
15203;DHT22;7702;51.046;5.184;2023-04-15T14:37:53;19.70;94.80
15203;DHT22;7702;51.046;5.184;2023-04-15T14:40:18;20.20;92.40
15203;DHT22;7702;51.046;5.184;2023-04-15T14:42:45;19.70;93.70
15203;DHT22;7702;51.046;5.184;2023-04-15T14:45:11;19.30;90.10
15203;DHT22;7702;51.046;5.184;2023-04-15T14:47:36;18.90;93.30
15203;DHT22;7702;51.046;5.184;2023-04-15T14:50:03;19.10;93.00
15203;DHT22;7702;51.046;5.184;2023-04-15T14:52:32;18.60;93.60
15203;DHT22;7702;51.046;5.184;2023-04-15T14:55:07;18.00;96.10
15203;DHT22;7702;51.046;5.184;2023-04-15T14:57:34;17.60;96.20
15203;DHT22;7702;51.046;5.184;2023-04-15T15:00:00;17.90;98.30
15203;DHT22;7702;51.046;5.184;2023-04-15T15:02:26;18.80;95.00
15203;DHT22;7702;51.046;5.184;2023-04-15T15:04:53;18.70;96.60
15203;DHT22;7702;51.046;5.184;2023-04-15T15:07:18;19.00;95.30
15203;DHT22;7702;51.046;5.184;2023-04-15T15:09:45;18.80;96.30
15203;DHT22;7702;51.046;5.184;2023-04-15T15:12:11;19.50;95.30
15203;DHT22;7702;51.046;5.184;2023-04-15T15:14:36;20.00;92.10
15203;DHT22;7702;51.046;5.184;2023-04-15T15:17:02;20.60;92.70
15203;DHT22;7702;51.046;5.184;2023-04-15T15:19:28;20.50;93.50
15203;DHT22;7702;51.046;5.184;2023-04-15T15:21:53;20.00;91.20
15203;DHT22;7702;51.046;5.184;2023-04-15T15:24:19;20.10;91.30
15203;DHT22;7702;51.046;5.184;2023-04-15T15:26:45;20.00;89.90
15203;DHT22;7702;51.046;5.184;2023-04-15T15:29:11;19.70;93.00
15203;DHT22;7702;51.046;5.184;2023-04-15T15:31:37;20.00;91.00
15203;DHT22;7702;51.046;5.184;2023-04-15T15:34:03;19.20;94.30
15203;DHT22;7702;51.046;5.184;2023-04-15T15:36:29;18.90;95.00
15203;DHT22;7702;51.046;5.184;2023-04-15T15:38:56;19.20;95.00
15203;DHT22;7702;51.046;5.184;2023-04-15T15:41:22;18.90;95.00
15203;DHT22;7702;51.046;5.184;2023-04-15T15:43:48;18.60;94.90
15203;DHT22;7702;51.046;5.184;2023-04-15T15:46:14;18.20;95.70
15203;DHT22;7702;51.046;5.184;2023-04-15T15:48:40;17.90;98.00
15203;DHT22;7702;51.046;5.184;2023-04-15T15:51:06;18.20;99.40
15203;DHT22;7702;51.046;5.184;2023-04-15T15:53:33;18.70;96.00
15203;DHT22;7702;51.046;5.184;2023-04-15T15:55:58;18.40;98.20
15203;DHT22;7702;51.046;5.184;2023-04-15T15:58:24;19.00;97.50
15203;DHT22;7702;51.046;5.184;2023-04-15T16:00:50;19.80;95.30
15203;DHT22;7702;51.046;5.184;2023-04-15T16:03:15;20.20;93.80